Porto Uniao, Brazil
Current Conditions -  °F | °C
As of 10:00 AM on Thursday 30 Oct 2014 (Local Time) from SBCH Reporting Station
Scattered Clouds Scattered Clouds  
Wind Chill: 70°   Ceiling: Unl
Heat Index: 70°   Visibility: 6mi
Dew Point: 64°   Wind: 25mph
Humidity: 83%   Direction: 140°SE
Pressure: 29.83"   Gusts: NA
Location:  26.24°S, 51.08°W
Report Text: SBCH 301200Z 14022KT 9999 SCT042 FEW047TCU SCT090 21/18 Q1010
Loading
Personal Weather Stations






























Interactive Weather Map
Tropical Storm Tracking
New forecast layout! Learn more

10-Day Weather Forecast

Advertisements
Track Severe Weather on mobile